Dothan, Alabama
Current Conditions -  °F | °C
As of 6:53 PM on Saturday 20 Dec 2014 (Local Time) from KDHN Reporting Station
Overcast Overcast  
Wind Chill: 52°   Ceiling: 1000
Heat Index: 52°   Visibility: 10mi
Dew Point: 49°   Wind: 10mph
Humidity: 89%   Direction: 30°NNE
Pressure: 30.16"   Gusts: NA
Location:  31.22°N, 85.39°W
Report Text: KDHN 210053Z 03009KT 10SM BKN010 OVC070 11/09 A3016 RMK AO2 RAE20B41E53 SLP213 P0000 T01110094
Loading
Personal Weather Stations






























Interactive Weather Map New forecast layout! Learn more

10-Day Weather Forecast

Advertisements
Track Severe Weather on mobile